sensor_id;sensor_type;location;lat;lon;timestamp;pressure;altitude;pressure_sealevel;temperature;humidity
65614;BME280;52283;49.292;10.572;2023-05-09T00:02:16;96863.81;;;13.39;100.00
65614;BME280;52283;49.292;10.572;2023-05-09T00:04:43;96870.44;;;13.25;100.00
65614;BME280;52283;49.292;10.572;2023-05-09T00:07:09;96871.97;;;13.43;100.00
65614;BME280;52283;49.292;10.572;2023-05-09T00:09:36;96862.28;;;13.38;100.00
65614;BME280;52283;49.292;10.572;2023-05-09T00:12:02;96865.34;;;13.24;100.00
65614;BME280;52283;49.292;10.572;2023-05-09T00:14:30;96859.72;;;13.29;100.00
65614;BME280;52283;49.292;10.572;2023-05-09T00:16:57;96856.69;;;13.33;100.00
65614;BME280;52283;49.292;10.572;2023-05-09T00:19:24;96859.19;;;13.48;100.00
65614;BME280;52283;49.292;10.572;2023-05-09T00:21:50;96849.72;;;13.51;100.00
65614;BME280;52283;49.292;10.572;2023-05-09T00:24:17;96851.81;;;13.28;100.00
65614;BME280;52283;49.292;10.572;2023-05-09T00:26:43;96846.44;;;13.41;100.00
65614;BME280;52283;49.292;10.572;2023-05-09T00:29:09;96849.28;;;13.35;100.00
65614;BME280;52283;49.292;10.572;2023-05-09T00:31:37;96842.63;;;13.16;100.00
65614;BME280;52283;49.292;10.572;2023-05-09T00:34:04;96840.59;;;13.33;100.00
65614;BME280;52283;49.292;10.572;2023-05-09T00:36:30;96830.63;;;13.27;100.00
65614;BME280;52283;49.292;10.572;2023-05-09T00:38:57;96837.00;;;13.10;100.00
65614;BME280;52283;49.292;10.572;2023-05-09T00:41:23;96836.50;;;13.29;100.00
65614;BME280;52283;49.292;10.572;2023-05-09T00:43:50;96820.94;;;13.28;100.00
65614;BME280;52283;49.292;10.572;2023-05-09T00:46:16;96823.47;;;13.09;100.00
65614;BME280;52283;49.292;10.572;2023-05-09T00:48:44;96826.31;;;13.26;100.00
65614;BME280;52283;49.292;10.572;2023-05-09T00:51:12;96820.44;;;13.24;100.00
65614;BME280;52283;49.292;10.572;2023-05-09T00:53:39;96815.84;;;13.37;100.00
65614;BME280;52283;49.292;10.572;2023-05-09T00:56:06;96820.69;;;13.37;100.00
65614;BME280;52283;49.292;10.572;2023-05-09T00:58:33;96819.66;;;13.34;100.00
65614;BME280;52283;49.292;10.572;2023-05-09T01:00:59;96811.75;;;13.05;100.00
65614;BME280;52283;49.292;10.572;2023-05-09T01:03:28;96806.94;;;13.22;100.00
65614;BME280;52283;49.292;10.572;2023-05-09T01:06:00;96807.44;;;13.04;100.00
65614;BME280;52283;49.292;10.572;2023-05-09T01:08:36;96798.53;;;12.94;100.00
65614;BME280;52283;49.292;10.572;2023-05-09T01:11:10;96792.66;;;12.87;100.00
65614;BME280;52283;49.292;10.572;2023-05-09T01:13:44;96795.97;;;12.96;100.00
65614;BME280;52283;49.292;10.572;2023-05-09T01:16:19;96784.97;;;13.15;100.00
65614;BME280;52283;49.292;10.572;2023-05-09T01:18:54;96788.03;;;13.28;100.00
65614;BME280;52283;49.292;10.572;2023-05-09T01:21:27;96786.00;;;12.67;100.00
65614;BME280;52283;49.292;10.572;2023-05-09T01:24:22;96788.84;;;12.95;100.00
65614;BME280;52283;49.292;10.572;2023-05-09T01:27:09;96783.22;;;12.95;100.00
65614;BME280;52283;49.292;10.572;2023-05-09T01:29:42;96787.53;;;13.02;100.00
65614;BME280;52283;49.292;10.572;2023-05-09T01:32:13;96784.47;;;12.89;100.00
65614;BME280;52283;49.292;10.572;2023-05-09T01:34:42;96786.53;;;12.77;100.00
65614;BME280;52283;49.292;10.572;2023-05-09T01:37:10;96782.19;;;12.81;100.00
65614;BME280;52283;49.292;10.572;2023-05-09T01:39:39;96776.84;;;13.00;100.00
65614;BME280;52283;49.292;10.572;2023-05-09T01:42:08;96777.84;;;12.86;100.00
65614;BME280;52283;49.292;10.572;2023-05-09T01:44:38;96779.91;;;12.69;100.00
65614;BME280;52283;49.292;10.572;2023-05-09T01:47:06;96777.88;;;12.80;100.00
65614;BME280;52283;49.292;10.572;2023-05-09T01:49:35;96777.84;;;12.69;100.00
65614;BME280;52283;49.292;10.572;2023-05-09T01:52:04;96776.56;;;12.42;100.00
65614;BME280;52283;49.292;10.572;2023-05-09T01:54:32;96772.25;;;12.69;100.00
65614;BME280;52283;49.292;10.572;2023-05-09T01:57:01;96779.13;;;12.46;100.00
65614;BME280;52283;49.292;10.572;2023-05-09T01:59:29;96775.59;;;12.51;100.00
65614;BME280;52283;49.292;10.572;2023-05-09T02:01:57;96776.59;;;12.54;100.00
65614;BME280;52283;49.292;10.572;2023-05-09T02:04:26;96776.56;;;12.42;100.00
65614;BME280;52283;49.292;10.572;2023-05-09T02:06:53;96776.31;;;12.46;100.00
65614;BME280;52283;49.292;10.572;2023-05-09T02:09:21;96775.56;;;12.57;100.00
65614;BME280;52283;49.292;10.572;2023-05-09T02:11:47;96772.78;;;12.51;100.00
65614;BME280;52283;49.292;10.572;2023-05-09T02:14:14;96772.22;;;12.25;100.00
65614;BME280;52283;49.292;10.572;2023-05-09T02:16:40;96767.63;;;12.27;100.00
65614;BME280;52283;49.292;10.572;2023-05-09T02:19:07;96770.19;;;12.25;100.00
65614;BME280;52283;49.292;10.572;2023-05-09T02:21:35;96765.84;;;12.13;100.00
65614;BME280;52283;49.292;10.572;2023-05-09T02:24:01;96772.94;;;11.92;100.00
65614;BME280;52283;49.292;10.572;2023-05-09T02:26:28;96768.09;;;11.92;100.00
65614;BME280;52283;49.292;10.572;2023-05-09T02:28:56;96770.59;;;11.84;100.00
65614;BME280;52283;49.292;10.572;2023-05-09T02:31:24;96773.69;;;11.92;100.00
65614;BME280;52283;49.292;10.572;2023-05-09T02:33:53;96779.00;;;11.84;100.00
65614;BME280;52283;49.292;10.572;2023-05-09T02:36:21;96776.25;;;11.90;100.00
65614;BME280;52283;49.292;10.572;2023-05-09T02:38:49;96776.41;;;11.75;100.00
65614;BME280;52283;49.292;10.572;2023-05-09T02:41:16;96780.97;;;11.67;100.00
65614;BME280;52283;49.292;10.572;2023-05-09T02:43:42;96780.47;;;11.74;100.00
65614;BME280;52283;49.292;10.572;2023-05-09T02:46:09;96773.34;;;11.68;100.00
65614;BME280;52283;49.292;10.572;2023-05-09T02:48:35;96772.84;;;11.75;100.00
65614;BME280;52283;49.292;10.572;2023-05-09T02:51:02;96773.38;;;11.79;100.00
65614;BME280;52283;49.292;10.572;2023-05-09T02:53:28;96762.91;;;11.68;100.00
65614;BME280;52283;49.292;10.572;2023-05-09T02:55:56;96771.03;;;11.66;100.00
65614;BME280;52283;49.292;10.572;2023-05-09T02:58:23;96768.50;;;11.68;100.00
65614;BME280;52283;49.292;10.572;2023-05-09T03:00:49;96769.25;;;11.69;100.00
65614;BME280;52283;49.292;10.572;2023-05-09T03:03:16;96770.63;;;11.90;100.00
65614;BME280;52283;49.292;10.572;2023-05-09T03:05:43;96773.88;;;11.77;100.00
65614;BME280;52283;49.292;10.572;2023-05-09T03:08:09;96770.09;;;11.86;100.00
65614;BME280;52283;49.292;10.572;2023-05-09T03:10:36;96766.72;;;11.71;100.00
65614;BME280;52283;49.292;10.572;2023-05-09T03:13:04;96768.00;;;11.75;100.00
65614;BME280;52283;49.292;10.572;2023-05-09T03:15:30;96766.22;;;11.78;100.00
65614;BME280;52283;49.292;10.572;2023-05-09T03:17:56;96772.44;;;11.99;100.00
65614;BME280;52283;49.292;10.572;2023-05-09T03:20:24;96769.78;;;11.67;100.00
65614;BME280;52283;49.292;10.572;2023-05-09T03:22:51;96764.28;;;11.95;100.00
65614;BME280;52283;49.292;10.572;2023-05-09T03:25:18;96766.53;;;11.80;100.00
65614;BME280;52283;49.292;10.572;2023-05-09T03:27:44;96766.56;;;11.91;100.00
65614;BME280;52283;49.292;10.572;2023-05-09T03:30:13;96749.78;;;12.02;100.00
65614;BME280;52283;49.292;10.572;2023-05-09T03:32:39;96752.31;;;12.00;100.00
65614;BME280;52283;49.292;10.572;2023-05-09T03:35:06;96740.84;;;11.87;100.00
65614;BME280;52283;49.292;10.572;2023-05-09T03:37:33;96745.34;;;11.73;100.00
65614;BME280;52283;49.292;10.572;2023-05-09T03:39:59;96749.50;;;11.95;100.00
65614;BME280;52283;49.292;10.572;2023-05-09T03:42:26;96751.06;;;12.07;100.00
65614;BME280;52283;49.292;10.572;2023-05-09T03:44:52;96742.94;;;12.14;100.00
65614;BME280;52283;49.292;10.572;2023-05-09T03:47:20;96750.28;;;11.89;100.00
65614;BME280;52283;49.292;10.572;2023-05-09T03:49:47;96753.34;;;11.97;100.00
65614;BME280;52283;49.292;10.572;2023-05-09T03:52:14;96754.31;;;11.83;100.00
65614;BME280;52283;49.292;10.572;2023-05-09T03:54:40;96751.19;;;11.70;100.00
65614;BME280;52283;49.292;10.572;2023-05-09T03:57:07;96748.88;;;11.63;100.00
65614;BME280;52283;49.292;10.572;2023-05-09T03:59:33;96753.03;;;11.78;100.00
65614;BME280;52283;49.292;10.572;2023-05-09T04:02:00;96755.84;;;11.84;100.00
65614;BME280;52283;49.292;10.572;2023-05-09T04:04:28;96752.81;;;11.87;100.00
65614;BME280;52283;49.292;10.572;2023-05-09T04:06:54;96758.94;;;11.92;100.00
65614;BME280;52283;49.292;10.572;2023-05-09T04:09:20;96765.56;;;12.05;100.00
65614;BME280;52283;49.292;10.572;2023-05-09T04:11:47;96767.44;;;11.66;100.00
65614;BME280;52283;49.292;10.572;2023-05-09T04:14:13;96768.97;;;11.61;100.00
65614;BME280;52283;49.292;10.572;2023-05-09T04:16:41;96761.97;;;11.88;100.00
65614;BME280;52283;49.292;10.572;2023-05-09T04:19:07;96755.38;;;11.97;100.00
65614;BME280;52283;49.292;10.572;2023-05-09T04:21:35;96739.69;;;11.51;100.00
65614;BME280;52283;49.292;10.572;2023-05-09T04:24:01;96751.66;;;11.63;100.00
65614;BME280;52283;49.292;10.572;2023-05-09T04:26:28;96755.38;;;12.02;100.00
65614;BME280;52283;49.292;10.572;2023-05-09T04:28:55;96758.06;;;11.74;100.00
65614;BME280;52283;49.292;10.572;2023-05-09T04:31:22;96764.00;;;11.87;100.00
65614;BME280;52283;49.292;10.572;2023-05-09T04:33:48;96757.66;;;11.87;100.00
65614;BME280;52283;49.292;10.572;2023-05-09T04:36:15;96758.63;;;11.84;100.00
65614;BME280;52283;49.292;10.572;2023-05-09T04:38:43;96753.41;;;11.49;100.00
65614;BME280;52283;49.292;10.572;2023-05-09T04:41:10;96746.06;;;11.57;100.00
65614;BME280;52283;49.292;10.572;2023-05-09T04:43:37;96754.19;;;11.60;100.00
65614;BME280;52283;49.292;10.572;2023-05-09T04:46:03;96755.97;;;11.52;100.00
65614;BME280;52283;49.292;10.572;2023-05-09T04:48:30;96755.44;;;11.48;100.00
65614;BME280;52283;49.292;10.572;2023-05-09T04:50:56;96760.78;;;11.52;100.00
65614;BME280;52283;49.292;10.572;2023-05-09T04:53:22;96750.66;;;11.66;100.00
65614;BME280;52283;49.292;10.572;2023-05-09T04:55:50;96748.34;;;11.53;100.00
65614;BME280;52283;49.292;10.572;2023-05-09T04:58:17;96742.22;;;11.49;100.00
65614;BME280;52283;49.292;10.572;2023-05-09T05:00:43;96740.97;;;11.55;100.00
65614;BME280;52283;49.292;10.572;2023-05-09T05:03:10;96737.50;;;11.83;100.00
65614;BME280;52283;49.292;10.572;2023-05-09T05:05:37;96734.84;;;11.46;100.00
65614;BME280;52283;49.292;10.572;2023-05-09T05:08:04;96735.44;;;11.78;100.00
65614;BME280;52283;49.292;10.572;2023-05-09T05:10:31;96735.25;;;12.04;100.00
65614;BME280;52283;49.292;10.572;2023-05-09T05:12:59;96727.22;;;11.57;100.00
65614;BME280;52283;49.292;10.572;2023-05-09T05:15:25;96726.72;;;11.65;100.00
65614;BME280;52283;49.292;10.572;2023-05-09T05:17:51;96726.78;;;11.76;100.00
65614;BME280;52283;49.292;10.572;2023-05-09T05:20:18;96729.34;;;11.85;100.00
65614;BME280;52283;49.292;10.572;2023-05-09T05:22:45;96729.41;;;11.90;100.00
65614;BME280;52283;49.292;10.572;2023-05-09T05:25:12;96727.41;;;12.19;100.00
65614;BME280;52283;49.292;10.572;2023-05-09T05:27:38;96726.41;;;12.33;100.00
65614;BME280;52283;49.292;10.572;2023-05-09T05:30:07;96721.94;;;11.76;100.00
65614;BME280;52283;49.292;10.572;2023-05-09T05:32:34;96727.66;;;12.21;100.00
65614;BME280;52283;49.292;10.572;2023-05-09T05:35:00;96723.59;;;12.39;99.82
65614;BME280;52283;49.292;10.572;2023-05-09T05:37:29;96725.34;;;12.25;99.71
65614;BME280;52283;49.292;10.572;2023-05-09T05:39:55;96724.56;;;11.97;100.00
65614;BME280;52283;49.292;10.572;2023-05-09T05:42:22;96734.25;;;12.01;99.84
65614;BME280;52283;49.292;10.572;2023-05-09T05:44:48;96721.28;;;12.48;99.89
65614;BME280;52283;49.292;10.572;2023-05-09T05:47:16;96726.38;;;12.11;100.00
65614;BME280;52283;49.292;10.572;2023-05-09T05:49:43;96717.47;;;12.46;98.88
65614;BME280;52283;49.292;10.572;2023-05-09T05:52:09;96711.09;;;12.23;100.00
65614;BME280;52283;49.292;10.572;2023-05-09T05:54:35;96705.47;;;12.68;97.93
65614;BME280;52283;49.292;10.572;2023-05-09T05:57:02;96701.16;;;12.56;96.40
65614;BME280;52283;49.292;10.572;2023-05-09T05:59:28;96710.31;;;12.62;94.86
65614;BME280;52283;49.292;10.572;2023-05-09T06:01:55;96710.06;;;12.65;95.27
65614;BME280;52283;49.292;10.572;2023-05-09T06:04:23;96705.25;;;12.32;98.89
65614;BME280;52283;49.292;10.572;2023-05-09T06:06:49;96709.78;;;12.07;97.00
65614;BME280;52283;49.292;10.572;2023-05-09T06:09:16;96709.56;;;12.22;96.57
65614;BME280;52283;49.292;10.572;2023-05-09T06:11:42;96707.28;;;12.37;98.86
65614;BME280;52283;49.292;10.572;2023-05-09T06:14:09;96701.94;;;12.39;98.63
65614;BME280;52283;49.292;10.572;2023-05-09T06:16:35;96700.63;;;12.63;96.77
65614;BME280;52283;49.292;10.572;2023-05-09T06:19:02;96711.38;;;12.36;97.16
65614;BME280;52283;49.292;10.572;2023-05-09T06:21:29;96704.72;;;12.39;98.01
65614;BME280;52283;49.292;10.572;2023-05-09T06:23:58;96707.00;;;12.63;97.18
65614;BME280;52283;49.292;10.572;2023-05-09T06:26:26;96704.94;;;12.80;96.11
65614;BME280;52283;49.292;10.572;2023-05-09T06:28:53;96702.16;;;12.75;96.21
65614;BME280;52283;49.292;10.572;2023-05-09T06:31:20;96691.16;;;12.88;96.05
65614;BME280;52283;49.292;10.572;2023-05-09T06:33:46;96690.38;;;12.99;95.24
65614;BME280;52283;49.292;10.572;2023-05-09T06:36:13;96692.22;;;12.79;95.01
65614;BME280;52283;49.292;10.572;2023-05-09T06:38:40;96690.19;;;12.69;97.93
65614;BME280;52283;49.292;10.572;2023-05-09T06:41:07;96691.47;;;12.73;97.59
65614;BME280;52283;49.292;10.572;2023-05-09T06:43:33;96685.53;;;12.99;96.14
65614;BME280;52283;49.292;10.572;2023-05-09T06:46:00;96674.25;;;13.33;93.44
65614;BME280;52283;49.292;10.572;2023-05-09T06:48:27;96679.06;;;13.32;92.36
65614;BME280;52283;49.292;10.572;2023-05-09T06:50:53;96672.34;;;13.52;91.11
65614;BME280;52283;49.292;10.572;2023-05-09T06:53:20;96662.31;;;13.68;88.06
65614;BME280;52283;49.292;10.572;2023-05-09T06:55:48;96659.16;;;13.83;85.96
65614;BME280;52283;49.292;10.572;2023-05-09T06:58:14;96667.13;;;13.73;86.95
65614;BME280;52283;49.292;10.572;2023-05-09T07:00:41;96670.19;;;14.11;85.04
65614;BME280;52283;49.292;10.572;2023-05-09T07:03:07;96660.63;;;14.60;82.68
65614;BME280;52283;49.292;10.572;2023-05-09T07:05:34;96647.56;;;14.87;79.13
65614;BME280;52283;49.292;10.572;2023-05-09T07:08:01;96650.06;;;14.67;79.06
65614;BME280;52283;49.292;10.572;2023-05-09T07:10:28;96655.31;;;14.51;80.50
65614;BME280;52283;49.292;10.572;2023-05-09T07:12:56;96644.34;;;14.18;76.86
65614;BME280;52283;49.292;10.572;2023-05-09T07:15:22;96643.16;;;14.92;73.74
65614;BME280;52283;49.292;10.572;2023-05-09T07:17:49;96638.97;;;15.23;72.03
65614;BME280;52283;49.292;10.572;2023-05-09T07:20:17;96629.63;;;15.52;72.99
65614;BME280;52283;49.292;10.572;2023-05-09T07:22:43;96631.59;;;14.95;70.99
65614;BME280;52283;49.292;10.572;2023-05-09T07:25:09;96640.34;;;14.92;74.07
65614;BME280;52283;49.292;10.572;2023-05-09T07:27:36;96624.16;;;15.60;72.43
65614;BME280;52283;49.292;10.572;2023-05-09T07:30:05;96622.84;;;14.99;72.58
65614;BME280;52283;49.292;10.572;2023-05-09T07:32:33;96605.47;;;16.27;70.32
65614;BME280;52283;49.292;10.572;2023-05-09T07:35:00;96590.38;;;16.83;65.27
65614;BME280;52283;49.292;10.572;2023-05-09T07:37:27;96608.75;;;15.05;69.49
65614;BME280;52283;49.292;10.572;2023-05-09T07:39:53;96598.41;;;16.20;67.76
65614;BME280;52283;49.292;10.572;2023-05-09T07:42:20;96589.34;;;16.40;64.82
65614;BME280;52283;49.292;10.572;2023-05-09T07:44:46;96577.63;;;16.36;60.71
65614;BME280;52283;49.292;10.572;2023-05-09T07:47:14;96586.72;;;14.84;63.18
65614;BME280;52283;49.292;10.572;2023-05-09T07:49:40;96572.72;;;15.92;62.28
65614;BME280;52283;49.292;10.572;2023-05-09T07:52:10;96549.00;;;16.85;57.72
65614;BME280;52283;49.292;10.572;2023-05-09T07:54:37;96547.25;;;17.56;55.85
65614;BME280;52283;49.292;10.572;2023-05-09T07:57:03;96534.41;;;18.10;54.93
65614;BME280;52283;49.292;10.572;2023-05-09T07:59:29;96533.19;;;17.63;54.45
65614;BME280;52283;49.292;10.572;2023-05-09T08:01:56;96535.06;;;17.95;55.13
65614;BME280;52283;49.292;10.572;2023-05-09T08:04:24;96544.88;;;17.47;56.73
65614;BME280;52283;49.292;10.572;2023-05-09T08:06:51;96533.25;;;18.05;53.78
65614;BME280;52283;49.292;10.572;2023-05-09T08:09:17;96535.94;;;17.22;52.96
65614;BME280;52283;49.292;10.572;2023-05-09T08:11:43;96524.22;;;18.07;50.50
65614;BME280;52283;49.292;10.572;2023-05-09T08:14:10;96516.22;;;16.95;49.62
65614;BME280;52283;49.292;10.572;2023-05-09T08:16:36;96508.56;;;17.85;48.08
65614;BME280;52283;49.292;10.572;2023-05-09T08:19:03;96500.78;;;17.10;49.12
65614;BME280;52283;49.292;10.572;2023-05-09T08:21:31;96490.81;;;17.09;47.36
65614;BME280;52283;49.292;10.572;2023-05-09T08:23:57;96495.47;;;17.06;48.94
65614;BME280;52283;49.292;10.572;2023-05-09T08:26:25;96494.34;;;18.19;48.28
65614;BME280;52283;49.292;10.572;2023-05-09T08:28:51;96483.78;;;17.70;47.55
65614;BME280;52283;49.292;10.572;2023-05-09T08:31:18;96490.31;;;17.31;49.36
65614;BME280;52283;49.292;10.572;2023-05-09T08:33:44;96471.66;;;18.11;45.08
65614;BME280;52283;49.292;10.572;2023-05-09T08:36:11;96471.53;;;17.20;45.13
65614;BME280;52283;49.292;10.572;2023-05-09T08:38:39;96471.47;;;18.38;45.72
65614;BME280;52283;49.292;10.572;2023-05-09T08:41:05;96477.88;;;18.38;46.89
65614;BME280;52283;49.292;10.572;2023-05-09T08:43:32;96448.81;;;19.10;45.48
65614;BME280;52283;49.292;10.572;2023-05-09T08:46:02;96462.47;;;18.47;44.49
65614;BME280;52283;49.292;10.572;2023-05-09T08:48:33;96462.88;;;18.79;44.90
65614;BME280;52283;49.292;10.572;2023-05-09T08:51:02;96448.09;;;19.17;45.79
65614;BME280;52283;49.292;10.572;2023-05-09T08:53:29;96441.47;;;19.14;43.70
65614;BME280;52283;49.292;10.572;2023-05-09T08:55:57;96433.66;;;19.97;41.54
65614;BME280;52283;49.292;10.572;2023-05-09T08:58:24;96439.63;;;19.32;42.92
65614;BME280;52283;49.292;10.572;2023-05-09T09:00:51;96455.81;;;18.37;44.66
65614;BME280;52283;49.292;10.572;2023-05-09T09:03:19;96447.13;;;17.64;42.86
65614;BME280;52283;49.292;10.572;2023-05-09T09:05:46;96450.19;;;18.73;44.11
65614;BME280;52283;49.292;10.572;2023-05-09T09:08:14;96436.22;;;19.18;42.52
65614;BME280;52283;49.292;10.572;2023-05-09T09:10:42;96442.09;;;18.48;43.02
65614;BME280;52283;49.292;10.572;2023-05-09T09:13:13;96445.06;;;18.71;44.04
65614;BME280;52283;49.292;10.572;2023-05-09T09:15:42;96446.84;;;18.82;47.41
65614;BME280;52283;49.292;10.572;2023-05-09T09:18:11;96436.47;;;20.20;44.15
65614;BME280;52283;49.292;10.572;2023-05-09T09:20:47;96426.69;;;20.05;42.74
65614;BME280;52283;49.292;10.572;2023-05-09T09:23:17;96424.19;;;20.32;41.97
65614;BME280;52283;49.292;10.572;2023-05-09T09:25:44;96413.00;;;21.05;41.53
65614;BME280;52283;49.292;10.572;2023-05-09T09:28:12;96406.16;;;21.00;42.60
65614;BME280;52283;49.292;10.572;2023-05-09T09:30:42;96409.97;;;21.03;40.39
65614;BME280;52283;49.292;10.572;2023-05-09T09:33:09;96410.19;;;21.63;39.94
65614;BME280;52283;49.292;10.572;2023-05-09T09:35:37;96400.81;;;21.12;41.61
65614;BME280;52283;49.292;10.572;2023-05-09T09:38:05;96406.97;;;20.46;42.39
65614;BME280;52283;49.292;10.572;2023-05-09T09:40:31;96393.22;;;21.15;40.17
65614;BME280;52283;49.292;10.572;2023-05-09T09:42:58;96384.47;;;20.25;40.22
65614;BME280;52283;49.292;10.572;2023-05-09T09:45:25;96383.56;;;19.54;41.26
65614;BME280;52283;49.292;10.572;2023-05-09T09:47:52;96375.81;;;20.00;40.45
65614;BME280;52283;49.292;10.572;2023-05-09T09:50:19;96382.00;;;19.22;41.45
65614;BME280;52283;49.292;10.572;2023-05-09T09:52:51;96382.28;;;19.62;41.58
65614;BME280;52283;49.292;10.572;2023-05-09T09:55:19;96369.72;;;20.26;41.75
65614;BME280;52283;49.292;10.572;2023-05-09T09:57:46;96363.66;;;20.85;40.06
65614;BME280;52283;49.292;10.572;2023-05-09T10:00:14;96369.34;;;21.18;39.80
65614;BME280;52283;49.292;10.572;2023-05-09T10:02:50;96358.69;;;20.53;39.83
65614;BME280;52283;49.292;10.572;2023-05-09T10:05:20;96354.53;;;20.47;39.38
65614;BME280;52283;49.292;10.572;2023-05-09T10:07:52;96360.19;;;20.94;42.19
65614;BME280;52283;49.292;10.572;2023-05-09T10:10:19;96364.59;;;18.51;41.69
65614;BME280;52283;49.292;10.572;2023-05-09T10:12:46;96349.94;;;19.73;40.88
65614;BME280;52283;49.292;10.572;2023-05-09T10:15:16;96345.75;;;20.04;38.67
65614;BME280;52283;49.292;10.572;2023-05-09T10:17:45;96343.03;;;18.92;39.59
65614;BME280;52283;49.292;10.572;2023-05-09T10:20:16;96340.44;;;19.02;39.59
65614;BME280;52283;49.292;10.572;2023-05-09T10:22:43;96328.38;;;19.47;38.87
65614;BME280;52283;49.292;10.572;2023-05-09T10:25:13;96330.63;;;20.65;39.38
65614;BME280;52283;49.292;10.572;2023-05-09T10:27:44;96313.84;;;20.52;38.67
65614;BME280;52283;49.292;10.572;2023-05-09T10:30:14;96307.75;;;19.92;36.70
65614;BME280;52283;49.292;10.572;2023-05-09T10:32:47;96321.38;;;20.01;39.26
65614;BME280;52283;49.292;10.572;2023-05-09T10:35:16;96308.53;;;20.88;39.42
65614;BME280;52283;49.292;10.572;2023-05-09T10:37:44;96316.28;;;21.20;37.64
65614;BME280;52283;49.292;10.572;2023-05-09T10:40:11;96304.06;;;21.35;36.59
65614;BME280;52283;49.292;10.572;2023-05-09T10:42:39;96293.38;;;21.43;36.18
65614;BME280;52283;49.292;10.572;2023-05-09T10:45:08;96281.91;;;22.45;35.94
65614;BME280;52283;49.292;10.572;2023-05-09T10:47:35;96287.09;;;20.95;36.26
65614;BME280;52283;49.292;10.572;2023-05-09T10:50:03;96297.88;;;20.96;39.49
65614;BME280;52283;49.292;10.572;2023-05-09T10:52:32;96283.72;;;20.89;37.38
65614;BME280;52283;49.292;10.572;2023-05-09T10:54:59;96287.22;;;21.05;38.46
65614;BME280;52283;49.292;10.572;2023-05-09T10:57:27;96280.38;;;22.17;36.50
65614;BME280;52283;49.292;10.572;2023-05-09T10:59:55;96265.97;;;20.81;36.20
65614;BME280;52283;49.292;10.572;2023-05-09T11:02:23;96268.28;;;20.42;36.40
65614;BME280;52283;49.292;10.572;2023-05-09T11:05:17;96266.13;;;21.40;35.57
65614;BME280;52283;49.292;10.572;2023-05-09T11:07:45;96260.94;;;19.53;37.55
65614;BME280;52283;49.292;10.572;2023-05-09T11:10:14;96269.53;;;20.56;39.62
65614;BME280;52283;49.292;10.572;2023-05-09T11:12:54;96249.97;;;22.02;35.03
65614;BME280;52283;49.292;10.572;2023-05-09T11:15:21;96256.06;;;19.00;37.47
65614;BME280;52283;49.292;10.572;2023-05-09T11:17:50;96256.59;;;19.67;40.00
65614;BME280;52283;49.292;10.572;2023-05-09T11:20:32;96239.75;;;21.65;36.43
65614;BME280;52283;49.292;10.572;2023-05-09T11:23:02;96249.88;;;20.03;38.81
65614;BME280;52283;49.292;10.572;2023-05-09T11:25:29;96246.31;;;20.75;38.79
65614;BME280;52283;49.292;10.572;2023-05-09T11:27:57;96246.97;;;21.66;41.13
65614;BME280;52283;49.292;10.572;2023-05-09T11:30:35;96245.41;;;20.73;41.66
65614;BME280;52283;49.292;10.572;2023-05-09T11:33:03;96229.50;;;21.27;36.65
65614;BME280;52283;49.292;10.572;2023-05-09T11:35:31;96220.63;;;22.44;38.82
65614;BME280;52283;49.292;10.572;2023-05-09T11:37:59;96220.34;;;21.71;36.87
65614;BME280;52283;49.292;10.572;2023-05-09T11:40:28;96218.22;;;21.37;38.69
65614;BME280;52283;49.292;10.572;2023-05-09T11:42:56;96207.94;;;21.41;36.79
65614;BME280;52283;49.292;10.572;2023-05-09T11:45:24;96204.44;;;20.83;37.23
65614;BME280;52283;49.292;10.572;2023-05-09T11:47:51;96194.56;;;21.09;35.05
65614;BME280;52283;49.292;10.572;2023-05-09T11:50:18;96193.13;;;21.00;36.56
65614;BME280;52283;49.292;10.572;2023-05-09T11:52:46;96201.59;;;22.02;37.29
65614;BME280;52283;49.292;10.572;2023-05-09T11:55:13;96177.94;;;22.44;35.42
65614;BME280;52283;49.292;10.572;2023-05-09T11:57:44;96200.69;;;20.48;38.45
65614;BME280;52283;49.292;10.572;2023-05-09T12:00:11;96184.47;;;21.58;36.54
65614;BME280;52283;49.292;10.572;2023-05-09T12:02:38;96183.88;;;21.94;36.38
65614;BME280;52283;49.292;10.572;2023-05-09T12:05:06;96187.66;;;21.45;37.79
65614;BME280;52283;49.292;10.572;2023-05-09T12:07:34;96174.28;;;21.55;36.73
65614;BME280;52283;49.292;10.572;2023-05-09T12:10:00;96176.63;;;21.49;37.21
65614;BME280;52283;49.292;10.572;2023-05-09T12:12:28;96171.63;;;22.01;37.27
65614;BME280;52283;49.292;10.572;2023-05-09T12:15:01;96159.81;;;23.22;37.17
65614;BME280;52283;49.292;10.572;2023-05-09T12:17:28;96174.59;;;21.94;38.87
65614;BME280;52283;49.292;10.572;2023-05-09T12:19:57;96159.03;;;21.95;37.22
65614;BME280;52283;49.292;10.572;2023-05-09T12:22:24;96159.56;;;21.49;37.56
65614;BME280;52283;49.292;10.572;2023-05-09T12:24:50;96147.84;;;22.50;36.89
65614;BME280;52283;49.292;10.572;2023-05-09T12:27:17;96145.38;;;22.37;36.33
65614;BME280;52283;49.292;10.572;2023-05-09T12:29:43;96148.41;;;22.12;36.48
65614;BME280;52283;49.292;10.572;2023-05-09T12:32:14;96146.16;;;21.59;37.24
65614;BME280;52283;49.292;10.572;2023-05-09T12:34:41;96139.53;;;22.35;37.97
65614;BME280;52283;49.292;10.572;2023-05-09T12:37:13;96122.00;;;23.12;35.92
65614;BME280;52283;49.292;10.572;2023-05-09T12:39:40;96128.06;;;22.89;38.07
65614;BME280;52283;49.292;10.572;2023-05-09T12:42:11;96119.53;;;23.64;38.50
65614;BME280;52283;49.292;10.572;2023-05-09T12:44:37;96126.16;;;21.15;37.91
65614;BME280;52283;49.292;10.572;2023-05-09T12:47:04;96114.69;;;22.45;38.22
65614;BME280;52283;49.292;10.572;2023-05-09T12:49:35;96095.56;;;23.02;36.22